Time;durP1;ratioP1;P1;durP2;ratioP2;P2;SDS_P1;SDS_P2;PMS_P1;PMS_P2;Temp;Humidity;BMP_temperature;BMP_pressure;BME280_temperature;BME280_humidity;BME280_pressure;Samples;Min_cycle;Max_cycle;Signal;HPM_P1;HPM_P2
2022/07/09 00:00:10;;;;;;;13.40;7.18;;;15.90;99.90;;;;;;5011492;28;20042;-74
2022/07/09 00:02:37;;;;;;;13.60;6.80;;;15.80;99.90;;;;;;5024960;28;20049;-74
2022/07/09 00:05:03;;;;;;;13.05;7.70;;;15.80;99.90;;;;;;5025979;28;20042;-74
2022/07/09 00:07:28;;;;;;;10.38;5.97;;;15.80;99.90;;;;;;5026473;28;20069;-74
2022/07/09 00:09:54;;;;;;;12.80;6.05;;;15.80;99.90;;;;;;5009739;28;20034;-74
2022/07/09 00:12:20;;;;;;;11.35;7.35;;;15.80;99.90;;;;;;4992331;28;20416;-73
2022/07/09 00:14:46;;;;;;;13.95;6.53;;;15.80;99.90;;;;;;5029707;28;20038;-73
2022/07/09 00:17:12;;;;;;;16.00;7.40;;;15.80;99.90;;;;;;5009711;28;20034;-73
2022/07/09 00:19:38;;;;;;;13.38;7.38;;;15.80;99.90;;;;;;4993350;28;20057;-74
2022/07/09 00:22:05;;;;;;;9.25;6.63;;;15.70;99.90;;;;;;5043366;28;20121;-74
2022/07/09 00:24:31;;;;;;;14.13;6.88;;;15.70;99.90;;;;;;5040645;28;20057;-74
2022/07/09 00:26:57;;;;;;;13.52;7.10;;;15.70;99.90;;;;;;5008761;28;20041;-74
2022/07/09 00:29:22;;;;;;;13.20;6.70;;;15.60;99.90;;;;;;5006813;28;20046;-73
2022/07/09 00:31:48;;;;;;;12.43;7.30;;;15.60;99.90;;;;;;5009122;28;20046;-74
2022/07/09 00:34:14;;;;;;;12.57;6.10;;;15.50;99.90;;;;;;5023013;28;20143;-74
2022/07/09 00:36:39;;;;;;;9.48;6.20;;;15.50;99.90;;;;;;5041609;28;20038;-74
2022/07/09 00:39:05;;;;;;;11.52;6.65;;;15.50;99.90;;;;;;4992199;28;20490;-73
2022/07/09 00:41:31;;;;;;;10.82;6.32;;;15.40;99.90;;;;;;5008269;28;20052;-73
2022/07/09 00:43:57;;;;;;;11.93;6.95;;;15.40;99.90;;;;;;4993332;28;20042;-73
2022/07/09 00:46:23;;;;;;;15.23;7.07;;;15.40;99.90;;;;;;5004450;28;20033;-73
2022/07/09 00:48:48;;;;;;;12.55;7.25;;;15.40;99.90;;;;;;5024440;28;20049;-73
2022/07/09 00:51:16;;;;;;;11.10;7.18;;;15.40;99.90;;;;;;5008637;28;20490;-73
2022/07/09 00:53:42;;;;;;;8.40;6.53;;;15.40;99.90;;;;;;5008738;28;20050;-75
2022/07/09 00:56:08;;;;;;;15.13;7.47;;;15.40;99.90;;;;;;5010200;28;20097;-74
2022/07/09 00:58:36;;;;;;;14.38;8.25;;;15.40;99.90;;;;;;5007301;28;20060;-74
2022/07/09 01:01:02;;;;;;;13.85;7.30;;;15.40;99.90;;;;;;5023249;28;20045;-74
2022/07/09 01:03:28;;;;;;;12.73;7.10;;;15.30;99.90;;;;;;5007993;28;20124;-74
2022/07/09 01:05:56;;;;;;;14.88;8.25;;;15.30;99.90;;;;;;5010203;28;20033;-74
2022/07/09 01:08:22;;;;;;;12.32;7.93;;;15.30;99.90;;;;;;5007462;28;20042;-74
2022/07/09 01:10:51;;;;;;;13.55;8.05;;;15.20;99.90;;;;;;5043655;28;20552;-74
2022/07/09 01:13:16;;;;;;;13.57;7.40;;;15.20;99.90;;;;;;5014063;28;20038;-74
2022/07/09 01:15:42;;;;;;;10.98;7.43;;;15.20;99.90;;;;;;5007759;28;20477;-73
2022/07/09 01:18:12;;;;;;;15.75;8.50;;;15.10;99.90;;;;;;5006178;28;20692;-73
2022/07/09 01:20:38;;;;;;;15.88;10.07;;;15.10;99.90;;;;;;5009643;28;20120;-73
2022/07/09 01:23:03;;;;;;;13.43;9.38;;;15.10;99.90;;;;;;5024376;28;20042;-74
2022/07/09 01:25:37;;;;;;;14.13;8.93;;;15.20;99.90;;;;;;5008928;28;20128;-74
2022/07/09 01:28:07;;;;;;;14.70;9.25;;;15.20;99.90;;;;;;5004529;28;20042;-74
2022/07/09 01:30:34;;;;;;;15.27;10.85;;;15.30;99.90;;;;;;5009343;28;20100;-73
2022/07/09 01:33:00;;;;;;;15.50;9.25;;;15.30;99.90;;;;;;5007682;28;20038;-73
2022/07/09 01:35:26;;;;;;;14.35;8.82;;;15.40;99.90;;;;;;4991679;28;20042;-73
2022/07/09 01:37:53;;;;;;;15.50;8.73;;;15.40;99.90;;;;;;5039976;28;20049;-73
2022/07/09 01:40:19;;;;;;;15.40;9.43;;;15.50;99.90;;;;;;5039321;28;20121;-73
2022/07/09 01:42:46;;;;;;;10.13;7.93;;;15.40;99.90;;;;;;5008081;28;20046;-73
2022/07/09 01:45:12;;;;;;;9.00;7.18;;;15.50;99.90;;;;;;5023432;28;20096;-73
2022/07/09 01:47:38;;;;;;;11.23;8.43;;;15.50;99.90;;;;;;5025026;28;20057;-73
2022/07/09 01:50:05;;;;;;;14.90;8.43;;;15.50;99.90;;;;;;5004892;28;20104;-73
2022/07/09 01:52:31;;;;;;;16.25;8.93;;;15.60;99.90;;;;;;5004786;28;20052;-73
2022/07/09 01:54:57;;;;;;;15.35;8.65;;;15.70;99.90;;;;;;5009509;28;20416;-74
2022/07/09 01:57:22;;;;;;;14.48;8.27;;;15.60;99.90;;;;;;5018650;28;20050;-74
2022/07/09 01:59:48;;;;;;;14.73;9.88;;;15.70;99.90;;;;;;4993170;28;20052;-73
2022/07/09 02:02:14;;;;;;;17.02;9.32;;;15.70;99.90;;;;;;5006510;28;20071;-74
2022/07/09 02:04:39;;;;;;;16.02;8.85;;;15.70;99.90;;;;;;5039555;28;20046;-74
2022/07/09 02:07:05;;;;;;;12.52;9.38;;;15.70;99.90;;;;;;5025029;28;20050;-74
2022/07/09 02:09:31;;;;;;;14.05;9.25;;;15.70;99.90;;;;;;5005252;28;20080;-74
2022/07/09 02:11:56;;;;;;;16.70;10.38;;;15.70;99.90;;;;;;5002610;28;20045;-73
2022/07/09 02:14:22;;;;;;;19.02;9.48;;;15.70;99.90;;;;;;5004257;28;20045;-73
2022/07/09 02:16:48;;;;;;;18.88;10.00;;;15.80;99.90;;;;;;5006451;28;22135;-73
2022/07/09 02:19:14;;;;;;;15.48;10.02;;;15.70;99.90;;;;;;5021966;28;20080;-73
2022/07/09 02:21:40;;;;;;;12.05;9.38;;;15.80;99.90;;;;;;5040704;28;20516;-73
2022/07/09 02:24:06;;;;;;;18.17;10.40;;;15.80;99.90;;;;;;5004362;28;20054;-73
2022/07/09 02:26:32;;;;;;;17.00;10.07;;;15.80;99.90;;;;;;4990257;28;20041;-73
2022/07/09 02:28:59;;;;;;;13.65;9.10;;;15.80;99.90;;;;;;5000394;28;20498;-74
2022/07/09 02:31:26;;;;;;;16.45;9.75;;;15.80;99.90;;;;;;5017873;28;20050;-74
2022/07/09 02:33:52;;;;;;;13.77;9.13;;;15.80;99.90;;;;;;5008489;28;20046;-74
2022/07/09 02:36:18;;;;;;;14.27;10.15;;;15.70;99.90;;;;;;5006135;28;20036;-73
2022/07/09 02:38:44;;;;;;;12.95;9.13;;;15.70;99.90;;;;;;5039876;28;20038;-73
2022/07/09 02:41:10;;;;;;;17.08;9.88;;;15.80;99.90;;;;;;4992338;28;20100;-73
2022/07/09 02:43:36;;;;;;;14.43;9.00;;;15.70;99.90;;;;;;5003082;28;20049;-74
2022/07/09 02:46:03;;;;;;;14.48;9.45;;;15.70;99.90;;;;;;5002939;28;20040;-72
2022/07/09 02:48:29;;;;;;;14.23;9.20;;;15.70;99.90;;;;;;5038136;28;20070;-73
2022/07/09 02:50:55;;;;;;;13.98;8.55;;;15.70;99.90;;;;;;5009333;28;20092;-73
2022/07/09 02:53:21;;;;;;;11.50;8.25;;;15.70;99.90;;;;;;4997393;28;20142;-73
2022/07/09 02:55:47;;;;;;;13.63;8.88;;;15.70;99.90;;;;;;5001948;28;20054;-73
2022/07/09 02:58:13;;;;;;;11.40;8.48;;;15.70;99.90;;;;;;5040233;28;20489;-74
2022/07/09 03:00:40;;;;;;;13.05;8.93;;;15.70;99.90;;;;;;5008995;28;20125;-74
2022/07/09 03:03:06;;;;;;;9.90;8.70;;;15.70;99.90;;;;;;5006814;28;20136;-72
2022/07/09 03:05:32;;;;;;;12.68;8.63;;;15.70;99.90;;;;;;5012337;28;20434;-72
2022/07/09 03:07:58;;;;;;;11.20;9.23;;;15.70;99.90;;;;;;5011324;28;20096;-72
2022/07/09 03:10:23;;;;;;;16.02;9.75;;;15.70;99.90;;;;;;5011238;28;20046;-73
2022/07/09 03:12:49;;;;;;;12.65;9.18;;;15.70;99.90;;;;;;5010239;28;20539;-73
2022/07/09 03:15:16;;;;;;;11.18;8.98;;;15.70;99.90;;;;;;5010334;28;20042;-73
2022/07/09 03:17:46;;;;;;;11.48;9.07;;;15.70;99.90;;;;;;5010696;28;20404;-73
2022/07/09 03:20:12;;;;;;;12.95;9.32;;;15.70;99.90;;;;;;5006906;28;20454;-73
2022/07/09 03:22:38;;;;;;;13.77;9.10;;;15.80;99.90;;;;;;5024063;28;20498;-74
2022/07/09 03:25:05;;;;;;;11.95;9.40;;;15.80;99.90;;;;;;5009890;28;20144;-73
2022/07/09 03:27:31;;;;;;;14.05;9.20;;;15.80;99.90;;;;;;5010850;28;20520;-74
2022/07/09 03:29:57;;;;;;;13.55;9.70;;;15.80;99.90;;;;;;5026415;28;20050;-74
2022/07/09 03:32:23;;;;;;;13.32;9.05;;;15.80;99.90;;;;;;5011974;28;20048;-73
2022/07/09 03:34:49;;;;;;;16.50;9.65;;;15.80;99.90;;;;;;5027556;28;20424;-73
2022/07/09 03:37:14;;;;;;;15.50;9.75;;;15.80;99.90;;;;;;5043600;28;20061;-73
2022/07/09 03:39:40;;;;;;;17.05;9.15;;;15.80;99.90;;;;;;5012348;28;20048;-73
2022/07/09 03:42:06;;;;;;;14.00;9.30;;;15.80;99.90;;;;;;5042249;28;20037;-74
2022/07/09 03:44:35;;;;;;;14.15;9.13;;;15.80;99.90;;;;;;5043850;28;20042;-73
2022/07/09 03:47:01;;;;;;;11.95;8.80;;;15.70;99.90;;;;;;5009774;28;20084;-73
2022/07/09 03:49:27;;;;;;;15.50;8.75;;;15.70;99.90;;;;;;5025917;28;20068;-73
2022/07/09 03:51:52;;;;;;;10.85;8.55;;;15.70;99.90;;;;;;5027460;28;20077;-73
2022/07/09 03:54:18;;;;;;;11.77;8.43;;;15.60;99.90;;;;;;5042947;28;20130;-73
2022/07/09 03:56:44;;;;;;;13.50;8.27;;;15.60;99.90;;;;;;5043774;28;20030;-73
2022/07/09 03:59:10;;;;;;;16.27;9.82;;;15.60;99.90;;;;;;5025434;28;20046;-73
2022/07/09 04:01:36;;;;;;;16.95;8.70;;;15.60;99.90;;;;;;5010512;28;20042;-73
2022/07/09 04:04:02;;;;;;;11.68;9.35;;;15.60;99.90;;;;;;5011084;28;20034;-73
2022/07/09 04:06:27;;;;;;;14.90;10.05;;;15.60;99.90;;;;;;5009634;28;20100;-73
2022/07/09 04:08:53;;;;;;;17.17;9.55;;;15.60;99.90;;;;;;5010527;28;20037;-73
2022/07/09 04:11:19;;;;;;;13.52;10.02;;;15.70;99.90;;;;;;5010926;28;20063;-73
2022/07/09 04:13:44;;;;;;;13.23;10.68;;;15.70;99.90;;;;;;5041681;28;20449;-73
2022/07/09 04:16:10;;;;;;;15.35;9.63;;;15.70;99.90;;;;;;4992602;28;20057;-73
2022/07/09 04:18:36;;;;;;;16.40;10.50;;;15.80;99.90;;;;;;5008404;28;20465;-73
2022/07/09 04:21:02;;;;;;;19.75;10.75;;;15.80;99.90;;;;;;5043341;28;20048;-73
2022/07/09 04:23:28;;;;;;;15.13;11.15;;;15.80;99.90;;;;;;5043696;28;20738;-74
2022/07/09 04:25:53;;;;;;;19.75;11.18;;;15.90;99.90;;;;;;5041720;28;20113;-74
2022/07/09 04:28:20;;;;;;;21.15;11.73;;;15.90;99.90;;;;;;5008599;28;20041;-74
2022/07/09 04:30:46;;;;;;;19.15;11.30;;;16.00;99.90;;;;;;5007957;28;20072;-74
2022/07/09 04:33:12;;;;;;;18.08;11.25;;;16.00;99.90;;;;;;5011231;28;20087;-74
2022/07/09 04:35:38;;;;;;;15.40;10.45;;;16.00;99.90;;;;;;4992701;28;20046;-73
2022/07/09 04:38:04;;;;;;;15.02;11.27;;;16.10;99.90;;;;;;5010200;28;20037;-73
2022/07/09 04:40:30;;;;;;;21.38;13.82;;;16.10;99.90;;;;;;5044368;28;20077;-73
2022/07/09 04:42:56;;;;;;;19.20;11.25;;;16.10;99.90;;;;;;4993478;28;20076;-73
2022/07/09 04:45:21;;;;;;;18.55;12.57;;;16.20;99.90;;;;;;5010429;28;20179;-73
2022/07/09 04:47:47;;;;;;;18.25;12.35;;;16.20;99.90;;;;;;5025540;28;20038;-74
2022/07/09 04:50:13;;;;;;;16.08;11.60;;;16.30;99.90;;;;;;5010104;28;20513;-74
2022/07/09 04:52:39;;;;;;;17.30;12.75;;;16.30;99.90;;;;;;4992565;28;20061;-73
2022/07/09 04:55:06;;;;;;;14.90;11.10;;;16.40;99.90;;;;;;5039829;28;20045;-73
2022/07/09 04:57:32;;;;;;;17.23;12.25;;;16.50;99.90;;;;;;5023329;28;20099;-73
2022/07/09 05:00:01;;;;;;;16.55;11.05;;;16.50;99.90;;;;;;5021360;28;20049;-73
2022/07/09 05:02:27;;;;;;;18.52;11.43;;;16.60;99.90;;;;;;5010265;28;20069;-73
2022/07/09 05:04:53;;;;;;;16.80;11.48;;;16.60;99.90;;;;;;5042263;28;20088;-73
2022/07/09 05:07:18;;;;;;;13.35;10.60;;;16.70;99.90;;;;;;5025650;28;20110;-74
2022/07/09 05:09:44;;;;;;;14.02;10.35;;;16.70;99.90;;;;;;5009238;28;20053;-73
2022/07/09 05:12:10;;;;;;;15.98;10.68;;;16.80;99.90;;;;;;5041774;28;20125;-73
2022/07/09 05:14:39;;;;;;;14.45;9.77;;;16.80;99.90;;;;;;5042397;28;20046;-73
2022/07/09 05:17:06;;;;;;;13.88;10.95;;;16.80;99.90;;;;;;5004428;28;20054;-73
2022/07/09 05:19:32;;;;;;;13.27;10.38;;;16.80;99.90;;;;;;5007599;28;20068;-73
2022/07/09 05:21:58;;;;;;;14.00;10.02;;;16.80;99.90;;;;;;5008908;28;20045;-73
2022/07/09 05:24:23;;;;;;;14.35;10.23;;;16.80;99.90;;;;;;5010174;28;20057;-73
2022/07/09 05:26:49;;;;;;;15.18;10.82;;;16.80;99.90;;;;;;5040327;28;20068;-73
2022/07/09 05:29:15;;;;;;;14.57;9.85;;;16.90;99.90;;;;;;5009186;28;20160;-73
2022/07/09 05:31:41;;;;;;;11.07;8.80;;;17.00;99.90;;;;;;5024886;28;20064;-73
2022/07/09 05:34:07;;;;;;;11.95;8.52;;;17.00;99.90;;;;;;5041336;28;20444;-74
2022/07/09 05:36:34;;;;;;;14.82;9.55;;;17.00;99.90;;;;;;5007500;28;20510;-74
2022/07/09 05:39:00;;;;;;;12.70;9.63;;;17.10;99.90;;;;;;5025351;28;20103;-74
2022/07/09 05:41:27;;;;;;;11.98;9.10;;;17.20;99.90;;;;;;5042172;28;20053;-74
2022/07/09 05:43:53;;;;;;;14.05;9.82;;;17.20;99.90;;;;;;5024505;28;20468;-73
2022/07/09 05:46:19;;;;;;;12.38;8.95;;;17.30;99.90;;;;;;5039458;28;20056;-73
2022/07/09 05:48:45;;;;;;;9.55;7.45;;;17.40;99.90;;;;;;5025072;28;20046;-74
2022/07/09 05:51:11;;;;;;;12.13;7.75;;;17.50;99.90;;;;;;5006714;28;20488;-73
2022/07/09 05:53:37;;;;;;;11.23;7.75;;;17.60;99.90;;;;;;5024452;28;20133;-73
2022/07/09 05:56:03;;;;;;;9.75;7.50;;;17.60;99.90;;;;;;5008033;28;20046;-73
2022/07/09 05:58:28;;;;;;;8.10;6.22;;;17.60;99.90;;;;;;5008383;28;20122;-73
2022/07/09 06:00:54;;;;;;;8.68;6.22;;;17.70;99.90;;;;;;5008664;28;20125;-73
2022/07/09 06:03:19;;;;;;;10.20;6.88;;;17.80;99.90;;;;;;5008882;28;20084;-73
2022/07/09 06:05:45;;;;;;;7.60;5.97;;;17.70;99.90;;;;;;4991565;28;20092;-74
2022/07/09 06:08:12;;;;;;;10.25;6.43;;;17.80;99.90;;;;;;5006891;28;20041;-74
2022/07/09 06:10:37;;;;;;;9.15;6.63;;;17.90;99.90;;;;;;5035799;28;20053;-73
2022/07/09 06:13:03;;;;;;;8.85;5.60;;;17.90;99.90;;;;;;5007208;28;20045;-73
2022/07/09 06:15:29;;;;;;;9.50;6.15;;;18.00;99.90;;;;;;5009074;28;20137;-73
2022/07/09 06:17:54;;;;;;;7.18;5.38;;;18.10;99.90;;;;;;5034816;28;20050;-74
2022/07/09 06:20:20;;;;;;;8.10;5.28;;;18.10;99.90;;;;;;5009098;28;20077;-74
2022/07/09 06:22:46;;;;;;;7.70;5.03;;;18.20;99.90;;;;;;5002744;28;20424;-72
2022/07/09 06:25:12;;;;;;;9.05;5.82;;;18.20;99.90;;;;;;5041883;28;20391;-73
2022/07/09 06:27:40;;;;;;;7.22;5.10;;;18.20;99.90;;;;;;5006793;28;20184;-73
2022/07/09 06:30:06;;;;;;;7.07;5.38;;;18.20;99.90;;;;;;5006653;28;20049;-73
2022/07/09 06:32:32;;;;;;;10.77;5.78;;;18.30;99.90;;;;;;5006312;28;20427;-74
2022/07/09 06:34:57;;;;;;;7.20;5.35;;;18.40;99.90;;;;;;5041333;28;20141;-74
2022/07/09 06:37:23;;;;;;;6.93;5.47;;;18.40;99.90;;;;;;4993843;28;20041;-74
2022/07/09 06:39:50;;;;;;;7.78;5.00;;;18.40;99.90;;;;;;5012137;28;20485;-74
2022/07/09 06:42:17;;;;;;;11.07;9.18;;;18.50;99.90;;;;;;5044839;28;20042;-74
2022/07/09 06:44:43;;;;;;;10.88;9.35;;;18.50;99.90;;;;;;4995881;28;20053;-74
2022/07/09 06:47:10;;;;;;;12.27;5.70;;;18.50;99.90;;;;;;5010994;28;20058;-74
2022/07/09 06:49:36;;;;;;;6.88;4.85;;;18.50;99.90;;;;;;5043466;28;20056;-74
2022/07/09 06:52:02;;;;;;;8.13;4.45;;;18.50;99.90;;;;;;5044249;28;20045;-74
2022/07/09 06:54:28;;;;;;;7.45;4.13;;;18.50;99.90;;;;;;5010876;28;20049;-74
2022/07/09 06:56:56;;;;;;;7.25;5.05;;;18.50;99.90;;;;;;5045625;28;20402;-74
2022/07/09 06:59:22;;;;;;;10.80;7.55;;;18.50;99.90;;;;;;5045047;28;20382;-74
2022/07/09 07:01:48;;;;;;;7.00;4.78;;;18.60;99.90;;;;;;5012115;28;20053;-74
2022/07/09 07:04:14;;;;;;;7.07;4.88;;;18.70;99.90;;;;;;5026506;28;20127;-74
2022/07/09 07:06:41;;;;;;;7.32;3.97;;;18.70;99.90;;;;;;4995043;28;20845;-74
2022/07/09 07:09:07;;;;;;;6.80;4.57;;;18.80;99.90;;;;;;5009716;28;20414;-74
2022/07/09 07:11:33;;;;;;;9.07;4.78;;;18.80;99.90;;;;;;5029240;28;20060;-74
2022/07/09 07:13:58;;;;;;;6.95;3.78;;;18.90;99.90;;;;;;5041105;28;20144;-74
2022/07/09 07:16:24;;;;;;;6.60;4.07;;;18.90;99.90;;;;;;5045070;28;20128;-74
2022/07/09 07:18:50;;;;;;;7.95;4.20;;;19.00;99.90;;;;;;5011179;28;20041;-74
2022/07/09 07:21:16;;;;;;;6.15;3.90;;;19.10;99.90;;;;;;5043985;28;20053;-74
2022/07/09 07:23:41;;;;;;;4.80;3.75;;;19.30;99.90;;;;;;5044391;28;20564;-74
2022/07/09 07:26:07;;;;;;;7.80;4.30;;;19.30;99.90;;;;;;4996033;28;20136;-74
2022/07/09 07:28:33;;;;;;;4.60;3.40;;;19.40;99.90;;;;;;5011430;28;20050;-74
2022/07/09 07:30:59;;;;;;;8.65;3.88;;;19.50;99.90;;;;;;5012491;28;20217;-74
2022/07/09 07:33:25;;;;;;;8.52;3.83;;;19.50;99.90;;;;;;5011741;28;20378;-74
2022/07/09 07:35:50;;;;;;;6.53;2.95;;;19.40;99.90;;;;;;4995977;28;20097;-74
2022/07/09 07:38:16;;;;;;;11.20;5.88;;;19.40;99.90;;;;;;5012339;28;20478;-74
2022/07/09 07:40:42;;;;;;;7.57;6.30;;;19.30;99.90;;;;;;4996530;28;20777;-74
2022/07/09 07:43:11;;;;;;;8.32;3.85;;;19.20;99.90;;;;;;5011644;28;20121;-74
2022/07/09 07:45:37;;;;;;;7.18;3.47;;;19.20;99.90;;;;;;5012693;28;20525;-73
2022/07/09 07:48:03;;;;;;;5.18;3.30;;;19.20;99.90;;;;;;5005469;28;20517;-73
2022/07/09 07:50:29;;;;;;;4.30;2.70;;;19.20;99.90;;;;;;5011193;28;20060;-74
2022/07/09 07:52:55;;;;;;;3.80;2.35;;;19.20;99.90;;;;;;5011442;28;20053;-74
2022/07/09 07:55:20;;;;;;;5.18;2.42;;;19.20;99.90;;;;;;5026644;28;20128;-74
2022/07/09 07:57:46;;;;;;;4.82;2.60;;;19.20;99.90;;;;;;5042028;28;20137;-74
2022/07/09 08:00:12;;;;;;;4.45;2.08;;;19.10;99.90;;;;;;5012132;28;20139;-74
2022/07/09 08:02:38;;;;;;;5.53;1.90;;;19.10;99.90;;;;;;5010885;28;20037;-74
2022/07/09 08:05:04;;;;;;;5.50;2.13;;;19.10;99.90;;;;;;5028294;28;20147;-74
2022/07/09 08:07:30;;;;;;;4.43;1.85;;;19.00;99.90;;;;;;5009265;28;20049;-74
2022/07/09 08:09:56;;;;;;;5.80;2.00;;;19.10;99.90;;;;;;5011009;28;20053;-74
2022/07/09 08:12:22;;;;;;;3.22;1.52;;;19.10;99.90;;;;;;5010902;28;20054;-74
2022/07/09 08:14:47;;;;;;;4.43;1.70;;;19.20;99.90;;;;;;5010465;28;20058;-74
2022/07/09 08:17:13;;;;;;;5.07;1.45;;;19.30;99.90;;;;;;5010755;28;20034;-74
2022/07/09 08:19:39;;;;;;;4.03;1.60;;;19.40;99.90;;;;;;5011685;28;20086;-73
2022/07/09 08:22:05;;;;;;;3.95;1.75;;;19.60;99.90;;;;;;5044267;28;20057;-74
2022/07/09 08:24:30;;;;;;;2.55;1.40;;;19.80;99.90;;;;;;5010204;28;20046;-74
2022/07/09 08:26:58;;;;;;;4.85;1.88;;;20.10;99.90;;;;;;5007407;28;20049;-74
2022/07/09 08:29:24;;;;;;;59.13;52.90;;;20.20;99.90;;;;;;5010470;28;20046;-74
2022/07/09 08:31:50;;;;;;;5.53;2.97;;;20.50;99.90;;;;;;5010336;28;20052;-74
2022/07/09 08:34:16;;;;;;;3.10;1.27;;;20.70;99.90;;;;;;5011279;28;22009;-74
2022/07/09 08:36:42;;;;;;;3.53;1.10;;;20.90;99.90;;;;;;5009546;28;20041;-74
2022/07/09 08:39:08;;;;;;;3.95;1.45;;;21.40;99.90;;;;;;4994193;28;20570;-74
2022/07/09 08:41:34;;;;;;;3.83;1.20;;;21.80;99.90;;;;;;5008373;28;20069;-74
2022/07/09 08:44:03;;;;;;;4.53;1.30;;;22.20;99.90;;;;;;5007810;28;20038;-74
2022/07/09 08:46:29;;;;;;;2.83;1.05;;;22.60;99.90;;;;;;5007060;28;20042;-75
2022/07/09 08:48:57;;;;;;;100.03;90.07;;;22.60;99.90;;;;;;5042518;28;20543;-75
2022/07/09 08:51:23;;;;;;;5.25;3.50;;;22.80;99.90;;;;;;5042658;28;20175;-75
2022/07/09 08:53:49;;;;;;;4.00;1.70;;;23.10;99.90;;;;;;5009775;28;20050;-76
2022/07/09 08:56:16;;;;;;;2.03;0.75;;;23.60;99.90;;;;;;5008785;28;20073;-75
2022/07/09 08:58:42;;;;;;;3.60;0.65;;;24.20;99.90;;;;;;5006946;28;20123;-69
2022/07/09 09:01:12;;;;;;;2.65;0.90;;;24.40;99.90;;;;;;5005675;28;20046;-69
2022/07/09 09:03:38;;;;;;;2.90;0.75;;;24.40;99.90;;;;;;5008450;28;20513;-70
2022/07/09 09:06:08;;;;;;;3.92;0.73;;;24.60;99.90;;;;;;5011781;28;20129;-70
2022/07/09 09:08:39;;;;;;;3.65;0.60;;;24.80;99.90;;;;;;5010101;28;20077;-71
2022/07/09 09:11:06;;;;;;;2.10;0.47;;;24.80;97.80;;;;;;5010189;28;20057;-75
2022/07/09 09:13:46;;;;;;;2.80;0.80;;;24.70;99.70;;;;;;5041707;28;20060;-76
2022/07/09 09:16:13;;;;;;;3.28;0.60;;;24.80;98.10;;;;;;5001236;28;20411;-76
2022/07/09 09:18:47;;;;;;;2.78;0.68;;;24.40;98.90;;;;;;5006930;28;20048;-75
2022/07/09 09:21:15;;;;;;;1.08;0.45;;;24.30;96.70;;;;;;5023056;28;20046;-75
2022/07/09 09:23:47;;;;;;;2.00;0.57;;;24.20;98.60;;;;;;5005189;28;20042;-75
2022/07/09 09:26:22;;;;;;;2.78;0.50;;;24.10;97.70;;;;;;4992914;28;20050;-75
2022/07/09 09:29:02;;;;;;;2.95;0.65;;;23.60;96.50;;;;;;5006290;28;20139;-75
2022/07/09 09:31:31;;;;;;;4.22;0.82;;;23.20;96.60;;;;;;5023732;28;20180;-75
2022/07/09 09:34:09;;;;;;;2.00;0.50;;;22.70;98.20;;;;;;5008753;28;20049;-75
2022/07/09 09:36:37;;;;;;;11.07;9.95;;;22.50;99.50;;;;;;5037644;28;20084;-75
2022/07/09 09:39:21;;;;;;;2.58;0.70;;;22.30;98.70;;;;;;5041312;28;20063;-74
2022/07/09 09:41:50;;;;;;;30.17;27.02;;;22.60;98.60;;;;;;5041138;28;20125;-75
2022/07/09 09:44:25;;;;;;;3.15;0.82;;;22.80;98.90;;;;;;5009009;28;20042;-75
2022/07/09 09:46:53;;;;;;;2.45;0.60;;;23.10;97.70;;;;;;5045118;28;20040;-75
2022/07/09 09:49:19;;;;;;;3.58;0.50;;;23.40;98.30;;;;;;5009569;28;20045;-75
2022/07/09 09:51:56;;;;;;;1.80;0.45;;;23.70;96.80;;;;;;5012219;28;20038;-75
2022/07/09 09:54:22;;;;;;;2.40;0.43;;;23.80;93.80;;;;;;5040761;28;20057;-75
2022/07/09 09:56:49;;;;;;;4.10;1.90;;;23.60;94.40;;;;;;5043173;28;20077;-75
2022/07/09 09:59:16;;;;;;;2.92;0.60;;;23.40;94.50;;;;;;5024694;28;20093;-75
2022/07/09 10:01:43;;;;;;;4.75;0.68;;;23.20;95.60;;;;;;5007587;28;20597;-75
2022/07/09 10:04:10;;;;;;;4.15;0.80;;;22.90;95.10;;;;;;5009101;28;20042;-75
2022/07/09 10:06:36;;;;;;;3.25;0.60;;;22.60;95.10;;;;;;5008021;28;20045;-74
2022/07/09 10:09:07;;;;;;;4.40;0.70;;;22.40;95.20;;;;;;5009111;28;20054;-75
2022/07/09 10:11:40;;;;;;;2.85;0.73;;;22.30;95.20;;;;;;5041454;28;20046;-75
2022/07/09 10:14:06;;;;;;;2.78;0.73;;;22.30;96.10;;;;;;5012295;28;20379;-74
2022/07/09 10:16:37;;;;;;;2.08;0.52;;;22.50;95.90;;;;;;5011730;28;20587;-75
2022/07/09 10:19:03;;;;;;;2.97;0.60;;;22.90;95.80;;;;;;5029354;28;20112;-75
2022/07/09 10:21:40;;;;;;;6.15;0.88;;;23.20;94.90;;;;;;5014102;28;20141;-75
2022/07/09 10:24:10;;;;;;;5.10;0.70;;;23.40;94.30;;;;;;5011451;28;20046;-75
2022/07/09 10:26:42;;;;;;;2.13;0.50;;;23.50;95.70;;;;;;4998027;28;20050;-75
2022/07/09 10:29:27;;;;;;;4.18;0.68;;;23.60;92.80;;;;;;5012052;28;20518;-75
2022/07/09 10:31:54;;;;;;;3.25;0.68;;;23.70;90.20;;;;;;5013991;28;20049;-74
2022/07/09 10:34:32;;;;;;;4.53;0.70;;;23.30;91.20;;;;;;5009333;28;20061;-75
2022/07/09 10:37:02;;;;;;;2.97;0.65;;;23.00;91.70;;;;;;5012588;28;20122;-74
2022/07/09 10:39:31;;;;;;;4.93;0.70;;;22.60;91.90;;;;;;5013793;28;20049;-74
2022/07/09 10:42:05;;;;;;;3.40;0.80;;;22.20;93.40;;;;;;5026936;28;20125;-74
2022/07/09 10:44:39;;;;;;;4.93;0.80;;;22.00;94.00;;;;;;5006097;28;20460;-74
2022/07/09 10:47:06;;;;;;;4.57;0.68;;;22.00;95.10;;;;;;4994809;28;20554;-75
2022/07/09 10:49:37;;;;;;;3.88;0.77;;;22.30;95.70;;;;;;5010556;28;20525;-75
2022/07/09 10:52:07;;;;;;;3.80;0.65;;;22.60;94.80;;;;;;5011464;28;20073;-74
2022/07/09 10:54:33;;;;;;;3.30;0.60;;;22.90;93.20;;;;;;5046000;28;20108;-74
2022/07/09 10:57:00;;;;;;;2.72;0.63;;;23.10;91.90;;;;;;5012912;28;20049;-75
2022/07/09 10:59:26;;;;;;;3.30;0.60;;;23.40;91.20;;;;;;5012521;28;20092;-75
2022/07/09 11:01:52;;;;;;;5.68;0.70;;;23.30;91.40;;;;;;5012004;28;20042;-75
2022/07/09 11:04:31;;;;;;;1.35;0.43;;;23.10;91.00;;;;;;5046003;28;20501;-75
2022/07/09 11:07:00;;;;;;;3.05;0.52;;;22.70;91.40;;;;;;4992377;28;20053;-75
2022/07/09 11:09:30;;;;;;;6.80;0.80;;;22.40;91.90;;;;;;5012107;28;20081;-74
2022/07/09 11:11:56;;;;;;;4.75;0.88;;;22.10;92.20;;;;;;5011186;28;20070;-74
2022/07/09 11:14:22;;;;;;;2.85;0.82;;;22.10;92.90;;;;;;5009726;28;20466;-74
2022/07/09 11:17:00;;;;;;;1.80;0.32;;;22.10;92.50;;;;;;5009772;28;20125;-74
2022/07/09 11:19:29;;;;;;;3.70;0.70;;;22.20;90.10;;;;;;5011111;28;20050;-74
2022/07/09 11:22:02;;;;;;;4.28;0.60;;;22.50;92.20;;;;;;5029789;28;20107;-74
2022/07/09 11:24:29;;;;;;;4.70;0.90;;;23.10;91.50;;;;;;4993243;28;20072;-74
2022/07/09 11:26:55;;;;;;;5.18;1.10;;;23.40;91.50;;;;;;4995811;28;20050;-74
2022/07/09 11:29:21;;;;;;;6.32;1.13;;;23.40;91.90;;;;;;5027455;28;20049;-74
2022/07/09 11:31:51;;;;;;;4.28;0.75;;;23.00;92.40;;;;;;5008645;28;20116;-74
2022/07/09 11:34:17;;;;;;;7.22;1.60;;;22.30;94.00;;;;;;5012111;28;20099;-73
2022/07/09 11:36:45;;;;;;;8.90;1.08;;;22.40;95.80;;;;;;5012353;28;20049;-74
2022/07/09 11:39:37;;;;;;;7.75;1.25;;;22.50;96.30;;;;;;5011405;28;20057;-74
2022/07/09 11:42:04;;;;;;;7.95;1.55;;;22.70;94.40;;;;;;5042459;28;20044;-74
2022/07/09 11:44:33;;;;;;;5.85;1.17;;;22.90;94.30;;;;;;5044671;28;20053;-75
2022/07/09 11:47:07;;;;;;;9.40;1.33;;;23.10;93.20;;;;;;4986536;28;20108;-75
2022/07/09 11:49:34;;;;;;;5.55;1.20;;;23.20;91.70;;;;;;5026772;28;20558;-75
2022/07/09 11:52:01;;;;;;;4.15;1.13;;;23.10;92.40;;;;;;5010892;28;20054;-75
2022/07/09 11:54:30;;;;;;;4.18;0.77;;;23.20;92.50;;;;;;5041944;28;20045;-75
2022/07/09 11:56:56;;;;;;;6.43;1.27;;;23.00;91.50;;;;;;4992948;28;20065;-75
2022/07/09 11:59:26;;;;;;;5.50;0.95;;;22.80;91.30;;;;;;4994759;28;20038;-74
2022/07/09 12:01:52;;;;;;;4.05;0.90;;;22.90;92.30;;;;;;5009548;28;20052;-74
2022/07/09 12:04:19;;;;;;;5.03;0.90;;;23.10;91.70;;;;;;5044477;28;20038;-74
2022/07/09 12:06:52;;;;;;;4.15;0.82;;;23.20;90.40;;;;;;5010061;28;20042;-75
2022/07/09 12:09:29;;;;;;;4.97;1.00;;;23.10;87.40;;;;;;5027745;28;20032;-74
2022/07/09 12:11:55;;;;;;;7.10;1.00;;;23.10;88.00;;;;;;5009063;28;20029;-75
2022/07/09 12:14:21;;;;;;;6.30;1.15;;;23.20;90.00;;;;;;5027762;28;20395;-75
2022/07/09 12:16:46;;;;;;;3.40;0.77;;;23.30;88.30;;;;;;5007156;28;20049;-75
2022/07/09 12:19:12;;;;;;;5.03;0.90;;;23.20;88.40;;;;;;5027362;28;20057;-73
2022/07/09 12:21:37;;;;;;;3.10;0.60;;;23.10;86.80;;;;;;5042191;28;20041;-75
2022/07/09 12:24:03;;;;;;;3.70;0.68;;;22.80;86.40;;;;;;5009342;28;20049;-74
2022/07/09 12:26:30;;;;;;;3.78;0.88;;;22.60;86.80;;;;;;5010927;28;20045;-73
2022/07/09 12:28:56;;;;;;;3.78;0.80;;;22.40;86.20;;;;;;5008924;28;20049;-74
2022/07/09 12:31:22;;;;;;;4.70;0.75;;;22.40;88.40;;;;;;5013087;28;20033;-74
2022/07/09 12:33:47;;;;;;;4.85;0.90;;;22.80;87.10;;;;;;5046917;28;20438;-74
2022/07/09 12:36:16;;;;;;;2.78;0.40;;;23.20;86.00;;;;;;5013735;28;20049;-74
2022/07/09 12:38:42;;;;;;;3.90;0.55;;;23.50;81.70;;;;;;5026166;28;20121;-74